createdAt,value
2023-12-30T00:01:28.446Z,9.63
2023-12-30T00:03:59.437Z,9.83
2023-12-30T00:06:27.798Z,10.06
2023-12-30T00:08:56.062Z,9.87
2023-12-30T00:11:24.297Z,9.74
2023-12-30T00:13:55.451Z,9.71
2023-12-30T00:16:23.857Z,9.78
2023-12-30T00:18:53.922Z,10.36
2023-12-30T00:21:22.781Z,10.67
2023-12-30T00:23:51.566Z,10.35
2023-12-30T00:26:24.038Z,10.46
2023-12-30T00:28:52.530Z,10.85
2023-12-30T00:31:36.323Z,10.83
2023-12-30T00:34:08.150Z,9.49
2023-12-30T00:36:36.529Z,9.76
2023-12-30T00:39:05.183Z,9.62
2023-12-30T00:41:33.437Z,9.56
2023-12-30T00:44:04.623Z,9.90
2023-12-30T00:46:35.122Z,10.05
2023-12-30T00:49:09.947Z,9.62
2023-12-30T00:51:44.311Z,9.77
2023-12-30T00:54:18.761Z,10.08
2023-12-30T00:56:47.462Z,9.50
2023-12-30T00:59:21.606Z,10.55
2023-12-30T01:01:55.861Z,10.84
2023-12-30T01:04:25.652Z,9.83
2023-12-30T01:06:57.057Z,11.39
2023-12-30T01:09:28.148Z,10.39
2023-12-30T01:11:56.426Z,10.10
2023-12-30T01:14:24.736Z,9.48
2023-12-30T01:16:53.044Z,10.99
2023-12-30T01:19:21.382Z,11.58
2023-12-30T01:21:53.920Z,11.94
2023-12-30T01:24:27.280Z,11.48
2023-12-30T01:26:58.360Z,10.66
2023-12-30T01:29:30.438Z,10.91
2023-12-30T01:32:05.300Z,11.41
2023-12-30T01:34:33.615Z,11.85
2023-12-30T01:37:04.170Z,10.40
2023-12-30T01:39:32.533Z,9.99
2023-12-30T01:42:04.112Z,10.09
2023-12-30T01:44:32.394Z,10.53
2023-12-30T01:47:01.783Z,10.56
2023-12-30T01:49:30.443Z,10.10
2023-12-30T01:52:00.501Z,9.95
2023-12-30T01:54:30.621Z,10.10
2023-12-30T01:57:01.523Z,10.24
2023-12-30T01:59:33.060Z,10.60
2023-12-30T02:02:01.913Z,10.94
2023-12-30T02:04:31.593Z,11.58
2023-12-30T02:07:00.013Z,11.38
2023-12-30T02:09:30.233Z,11.12
2023-12-30T02:12:01.737Z,10.24
2023-12-30T02:14:32.097Z,11.51
2023-12-30T02:17:01.130Z,10.11
2023-12-30T02:19:29.541Z,9.98
2023-12-30T02:22:03.659Z,10.70
2023-12-30T02:24:33.300Z,10.67
2023-12-30T02:27:02.103Z,10.91
2023-12-30T02:29:30.346Z,11.38
2023-12-30T02:31:58.620Z,10.30
2023-12-30T02:34:32.989Z,10.23
2023-12-30T02:37:01.343Z,10.74
2023-12-30T02:39:29.620Z,11.25
2023-12-30T02:41:59.267Z,11.17
2023-12-30T02:44:34.707Z,10.42
2023-12-30T02:47:02.989Z,10.36
2023-12-30T02:49:51.837Z,10.47
2023-12-30T02:52:20.222Z,11.06
2023-12-30T02:54:51.366Z,10.79
2023-12-30T02:57:24.403Z,10.24
2023-12-30T02:59:52.700Z,10.25
2023-12-30T03:02:24.914Z,10.09
2023-12-30T03:04:56.272Z,10.96
2023-12-30T03:07:28.108Z,11.84
2023-12-30T03:09:59.329Z,11.13
2023-12-30T03:12:29.135Z,10.95
2023-12-30T03:15:04.745Z,9.98
2023-12-30T03:17:33.076Z,10.76
2023-12-30T03:20:01.441Z,11.09
2023-12-30T03:22:33.706Z,11.55
2023-12-30T03:25:02.360Z,11.29
2023-12-30T03:27:34.534Z,10.68
2023-12-30T03:30:03.086Z,10.58
2023-12-30T03:32:31.948Z,10.62
2023-12-30T03:35:08.056Z,10.83
2023-12-30T03:37:39.467Z,10.59
2023-12-30T03:40:09.683Z,10.54
2023-12-30T03:42:44.852Z,10.56
2023-12-30T03:45:27.023Z,10.91
2023-12-30T03:47:55.368Z,11.89
2023-12-30T03:50:23.879Z,11.32
2023-12-30T03:52:52.467Z,11.61
2023-12-30T03:55:20.916Z,12.41
2023-12-30T03:57:54.915Z,12.52
2023-12-30T04:00:23.278Z,11.41
2023-12-30T04:02:54.452Z,10.82
2023-12-30T04:05:26.231Z,10.71
2023-12-30T04:07:54.601Z,10.44
2023-12-30T04:10:28.925Z,10.60
2023-12-30T04:12:58.655Z,9.93
2023-12-30T04:15:26.949Z,9.87
2023-12-30T04:18:01.067Z,10.48
2023-12-30T04:20:32.438Z,9.93
2023-12-30T04:23:01.320Z,9.74
2023-12-30T04:25:32.523Z,11.10
2023-12-30T04:28:05.026Z,10.57
2023-12-30T04:30:33.605Z,10.20
2023-12-30T04:33:02.113Z,10.79
2023-12-30T04:35:30.603Z,10.88
2023-12-30T04:38:05.062Z,11.04
2023-12-30T04:40:33.450Z,10.25
2023-12-30T04:43:03.733Z,10.83
2023-12-30T04:45:32.334Z,11.26
2023-12-30T04:48:03.183Z,10.29
2023-12-30T04:50:34.643Z,11.04
2023-12-30T04:53:06.377Z,10.56
2023-12-30T04:55:35.138Z,11.80
2023-12-30T04:58:05.346Z,11.63
2023-12-30T05:00:36.129Z,12.06
2023-12-30T05:03:05.241Z,11.34
2023-12-30T05:05:33.706Z,12.24
2023-12-30T05:08:07.019Z,11.79
2023-12-30T05:10:35.891Z,11.70
2023-12-30T05:13:07.420Z,12.08
2023-12-30T05:15:38.984Z,11.94
2023-12-30T05:18:07.965Z,11.85
2023-12-30T05:20:39.573Z,12.28
2023-12-30T05:23:08.194Z,11.98
2023-12-30T05:25:36.864Z,11.49
2023-12-30T05:28:06.753Z,12.40
2023-12-30T05:30:41.384Z,12.95
2023-12-30T05:33:09.831Z,12.95
2023-12-30T05:35:38.805Z,12.40
2023-12-30T05:38:13.481Z,11.87
2023-12-30T05:40:41.952Z,11.76
2023-12-30T05:43:11.652Z,11.86
2023-12-30T05:45:40.328Z,11.83
2023-12-30T05:48:09.183Z,12.54
2023-12-30T05:50:40.541Z,12.59
2023-12-30T05:53:12.199Z,12.71
2023-12-30T05:55:44.277Z,12.70
2023-12-30T05:58:14.052Z,12.10
2023-12-30T06:00:44.823Z,11.63
2023-12-30T06:03:14.047Z,11.24
2023-12-30T06:05:48.249Z,11.51
2023-12-30T06:08:18.603Z,11.48
2023-12-30T06:10:52.648Z,10.99
2023-12-30T06:13:28.745Z,11.78
2023-12-30T06:15:58.292Z,12.17
2023-12-30T06:18:32.746Z,11.03
2023-12-30T06:21:07.926Z,12.23
2023-12-30T06:23:36.188Z,10.99
2023-12-30T06:26:07.251Z,11.76
2023-12-30T06:28:37.231Z,12.19
2023-12-30T06:31:08.815Z,11.86
2023-12-30T06:33:37.679Z,11.48
2023-12-30T06:36:07.915Z,12.19
2023-12-30T06:38:42.001Z,12.57
2023-12-30T06:41:13.390Z,12.23
2023-12-30T06:43:49.289Z,12.41
2023-12-30T06:46:22.897Z,12.71
2023-12-30T06:48:51.451Z,11.77
2023-12-30T06:51:25.959Z,12.54
2023-12-30T06:53:54.213Z,12.47
2023-12-30T06:56:25.740Z,11.97
2023-12-30T06:58:55.494Z,12.71
2023-12-30T07:01:25.447Z,11.31
2023-12-30T07:03:54.200Z,10.47
2023-12-30T07:06:22.879Z,10.27
2023-12-30T07:08:57.494Z,11.69
2023-12-30T07:11:26.021Z,11.35
2023-12-30T07:13:59.081Z,11.27
2023-12-30T07:19:23.407Z,11.41
2023-12-30T07:21:52.120Z,11.20
2023-12-30T07:24:20.807Z,11.57
2023-12-30T07:26:55.162Z,11.10
2023-12-30T07:29:27.821Z,10.74
2023-12-30T07:31:56.400Z,11.73
2023-12-30T07:34:27.901Z,12.00
2023-12-30T07:37:02.574Z,12.26
2023-12-30T07:39:30.891Z,11.42
2023-12-30T07:41:59.164Z,10.59
2023-12-30T07:44:30.674Z,10.63
2023-12-30T07:47:01.890Z,11.62
2023-12-30T07:49:30.234Z,12.27
2023-12-30T07:52:01.100Z,12.64
2023-12-30T07:54:29.990Z,12.47
2023-12-30T07:56:58.281Z,10.74
2023-12-30T07:59:27.901Z,11.73
2023-12-30T08:01:57.744Z,12.22
2023-12-30T08:04:32.499Z,11.65
2023-12-30T08:07:04.108Z,12.37
2023-12-30T08:09:32.449Z,12.36
2023-12-30T08:12:03.761Z,12.27
2023-12-30T08:14:33.408Z,12.61
2023-12-30T08:17:02.463Z,11.96
2023-12-30T08:19:30.822Z,11.01
2023-12-30T08:21:59.422Z,10.80
2023-12-30T08:24:33.635Z,11.33
2023-12-30T08:27:01.932Z,11.56
2023-12-30T08:29:34.832Z,11.34
2023-12-30T08:32:03.139Z,11.31
2023-12-30T08:34:34.616Z,11.35
2023-12-30T08:37:09.380Z,11.64
2023-12-30T08:39:41.805Z,12.14
2023-12-30T08:42:10.958Z,12.36
2023-12-30T08:44:45.205Z,11.93
2023-12-30T08:47:15.853Z,11.61
2023-12-30T08:49:50.557Z,11.84
2023-12-30T08:52:21.789Z,11.64
2023-12-30T08:54:52.974Z,12.13
2023-12-30T08:57:24.309Z,10.96
2023-12-30T08:59:53.962Z,11.88
2023-12-30T09:02:24.086Z,11.04
2023-12-30T09:04:52.399Z,11.88
2023-12-30T09:07:23.829Z,11.88
2023-12-30T09:09:52.116Z,10.98
2023-12-30T09:12:23.669Z,10.83
2023-12-30T09:14:53.598Z,10.64
2023-12-30T09:17:25.360Z,11.58
2023-12-30T09:19:53.991Z,11.17
2023-12-30T09:22:22.889Z,11.35
2023-12-30T09:24:55.242Z,12.02
2023-12-30T09:27:23.872Z,12.00
2023-12-30T09:29:53.834Z,11.41
2023-12-30T09:32:28.432Z,11.70
2023-12-30T09:34:57.954Z,11.20
2023-12-30T09:37:26.643Z,11.64
2023-12-30T09:39:55.406Z,11.25
2023-12-30T09:42:29.907Z,10.73
2023-12-30T09:45:02.741Z,10.54
2023-12-30T09:47:33.486Z,9.90
2023-12-30T09:50:08.669Z,10.97
2023-12-30T09:52:37.171Z,10.49
2023-12-30T09:55:06.594Z,10.70
2023-12-30T09:57:52.403Z,11.08
2023-12-30T10:00:27.522Z,11.79
2023-12-30T10:02:56.508Z,11.30
2023-12-30T10:05:30.442Z,12.22
2023-12-30T10:08:03.268Z,10.55
2023-12-30T10:10:45.192Z,10.16
2023-12-30T10:13:18.719Z,11.14
2023-12-30T10:15:48.425Z,11.38
2023-12-30T10:18:17.278Z,10.94
2023-12-30T10:20:49.633Z,10.48
2023-12-30T10:23:17.932Z,10.25
2023-12-30T10:25:49.471Z,11.11
2023-12-30T10:28:18.696Z,11.13
2023-12-30T10:31:09.328Z,11.93
2023-12-30T10:33:38.189Z,11.42
2023-12-30T10:36:08.944Z,11.68
2023-12-30T10:38:38.595Z,11.36
2023-12-30T10:41:07.064Z,12.18
2023-12-30T10:43:36.143Z,12.27
2023-12-30T10:46:15.790Z,11.07
2023-12-30T10:48:54.332Z,10.83
2023-12-30T10:51:27.269Z,11.79
2023-12-30T10:54:03.305Z,11.26
2023-12-30T10:56:48.038Z,10.00
2023-12-30T10:59:17.236Z,10.71
2023-12-30T11:01:47.761Z,10.62
2023-12-30T11:04:17.043Z,11.12
2023-12-30T11:06:53.906Z,11.29
2023-12-30T11:09:25.767Z,10.53
2023-12-30T11:11:56.722Z,10.52
2023-12-30T11:14:25.280Z,11.11
2023-12-30T11:16:58.737Z,10.95
2023-12-30T11:19:29.216Z,12.00
2023-12-30T11:22:06.890Z,12.39
2023-12-30T11:24:43.451Z,10.93
2023-12-30T11:27:12.703Z,10.95
2023-12-30T11:29:46.384Z,11.10
2023-12-30T11:32:20.482Z,11.42
2023-12-30T11:34:54.955Z,12.21
2023-12-30T11:37:24.260Z,12.35
2023-12-30T11:40:05.238Z,10.96
2023-12-30T11:42:42.005Z,11.60
2023-12-30T11:45:23.352Z,11.09
2023-12-30T11:47:56.407Z,11.69
2023-12-30T11:50:24.733Z,12.44
2023-12-30T11:52:56.301Z,11.27
2023-12-30T11:55:25.286Z,12.08
2023-12-30T11:57:53.584Z,11.86
2023-12-30T12:00:22.683Z,11.51
2023-12-30T12:02:55.825Z,11.80
2023-12-30T12:05:24.251Z,11.54
2023-12-30T12:07:52.551Z,11.04
2023-12-30T12:10:21.201Z,11.24
2023-12-30T12:12:53.022Z,11.25
2023-12-30T12:15:27.779Z,12.49
2023-12-30T12:17:58.696Z,12.07
2023-12-30T12:20:27.619Z,11.90
2023-12-30T12:22:56.353Z,11.71
2023-12-30T12:25:27.676Z,12.38
2023-12-30T12:27:59.559Z,12.36
2023-12-30T12:30:31.217Z,11.86
2023-12-30T12:33:04.336Z,12.21
2023-12-30T12:35:33.263Z,11.85
2023-12-30T12:38:08.046Z,11.93
2023-12-30T12:40:36.790Z,12.37
2023-12-30T12:43:08.454Z,12.18
2023-12-30T12:45:40.046Z,12.24
2023-12-30T12:48:10.403Z,11.87
2023-12-30T12:50:44.062Z,11.18
2023-12-30T12:53:15.747Z,10.77
2023-12-30T12:55:44.493Z,10.63
2023-12-30T12:58:16.702Z,11.14
2023-12-30T13:00:45.310Z,11.53
2023-12-30T13:03:18.460Z,11.44
2023-12-30T13:05:47.509Z,11.30
2023-12-30T13:08:18.509Z,11.36
2023-12-30T13:10:51.203Z,11.42
2023-12-30T13:13:20.446Z,11.53
2023-12-30T13:15:49.106Z,11.96
2023-12-30T13:18:23.079Z,11.96
2023-12-30T13:20:51.688Z,12.32
2023-12-30T13:23:28.848Z,12.34
2023-12-30T13:25:58.677Z,11.79
2023-12-30T13:28:32.173Z,11.11
2023-12-30T13:31:10.170Z,11.79
2023-12-30T13:34:00.292Z,12.30
2023-12-30T13:36:30.424Z,12.73
2023-12-30T13:39:07.121Z,11.71
2023-12-30T13:41:37.110Z,12.35
2023-12-30T13:44:15.026Z,12.26
2023-12-30T13:47:00.529Z,12.08
2023-12-30T13:50:01.079Z,11.75
2023-12-30T13:52:29.060Z,12.34
2023-12-30T13:54:59.654Z,11.25
2023-12-30T13:57:30.563Z,11.52
2023-12-30T13:59:59.513Z,11.54
2023-12-30T14:02:40.805Z,12.02
2023-12-30T14:05:18.624Z,11.86
2023-12-30T14:07:52.243Z,11.97
2023-12-30T14:10:20.579Z,11.41
2023-12-30T14:13:00.620Z,11.62
2023-12-30T14:15:29.474Z,11.88
2023-12-30T14:17:58.059Z,11.58
2023-12-30T14:20:28.123Z,11.54
2023-12-30T14:22:56.878Z,11.22
2023-12-30T14:25:25.200Z,11.20
2023-12-30T14:27:53.601Z,11.14
2023-12-30T14:30:25.487Z,11.42
2023-12-30T14:32:53.855Z,11.81
2023-12-30T14:35:23.096Z,12.09
2023-12-30T14:37:55.747Z,11.55
2023-12-30T14:40:24.810Z,11.20
2023-12-30T14:42:56.317Z,12.13
2023-12-30T14:45:27.468Z,11.94
2023-12-30T14:47:55.807Z,11.33
2023-12-30T14:50:24.120Z,11.57
2023-12-30T14:52:52.441Z,12.08
2023-12-30T14:55:22.143Z,12.05
2023-12-30T14:57:50.666Z,12.68
2023-12-30T15:00:23.263Z,11.41
2023-12-30T15:02:56.084Z,11.96
2023-12-30T15:05:24.854Z,12.16
2023-12-30T15:07:57.743Z,12.25
2023-12-30T15:10:28.124Z,11.54
2023-12-30T15:12:59.725Z,11.61
2023-12-30T15:15:28.144Z,12.31
2023-12-30T15:17:56.520Z,12.28
2023-12-30T15:20:38.794Z,12.09
2023-12-30T15:23:07.071Z,12.27
2023-12-30T15:25:38.021Z,12.17
2023-12-30T15:28:08.897Z,12.44
2023-12-30T15:30:37.464Z,12.16
2023-12-30T15:33:06.680Z,12.43
2023-12-30T15:35:38.845Z,11.98
2023-12-30T15:38:07.149Z,11.77
2023-12-30T15:40:42.321Z,11.74
2023-12-30T15:43:11.270Z,12.44
2023-12-30T15:45:39.813Z,12.25
2023-12-30T15:48:08.977Z,12.10
2023-12-30T15:50:37.621Z,11.61
2023-12-30T15:53:06.555Z,11.56
2023-12-30T15:55:35.098Z,11.98
2023-12-30T15:58:12.499Z,12.43
2023-12-30T16:00:43.915Z,11.54
2023-12-30T16:03:16.008Z,11.41
2023-12-30T16:05:44.562Z,11.67
2023-12-30T16:08:17.263Z,12.12
2023-12-30T16:10:51.953Z,11.25
2023-12-30T16:13:24.677Z,12.19
2023-12-30T16:15:58.046Z,11.72
2023-12-30T16:18:26.571Z,12.15
2023-12-30T16:20:57.353Z,11.54
2023-12-30T16:23:31.416Z,11.41
2023-12-30T16:25:59.810Z,11.59
2023-12-30T16:28:29.503Z,12.21
2023-12-30T16:31:07.091Z,12.32
2023-12-30T16:33:44.444Z,12.32
2023-12-30T16:36:16.619Z,12.76
2023-12-30T16:38:45.371Z,12.37
2023-12-30T16:41:15.025Z,12.26
2023-12-30T16:43:45.060Z,12.72
2023-12-30T16:46:20.027Z,12.90
2023-12-30T16:48:48.846Z,12.41
2023-12-30T16:51:23.389Z,12.49
2023-12-30T16:53:51.681Z,12.57
2023-12-30T16:56:20.452Z,12.82
2023-12-30T16:58:59.773Z,12.90
2023-12-30T17:01:30.933Z,12.81
2023-12-30T17:03:59.618Z,12.25
2023-12-30T17:06:34.766Z,12.33
2023-12-30T17:09:08.654Z,12.50
2023-12-30T17:11:40.823Z,12.22
2023-12-30T17:14:11.906Z,11.99
2023-12-30T17:16:40.925Z,12.50
2023-12-30T17:19:11.535Z,11.87
2023-12-30T17:21:40.133Z,11.14
2023-12-30T17:24:15.896Z,10.89
2023-12-30T17:26:47.193Z,11.29
2023-12-30T17:29:17.239Z,11.32
2023-12-30T17:31:51.374Z,10.69
2023-12-30T17:34:20.741Z,11.41
2023-12-30T17:36:57.898Z,11.16
2023-12-30T17:39:26.913Z,10.98
2023-12-30T17:41:55.647Z,10.93
2023-12-30T17:44:29.124Z,10.52
2023-12-30T17:46:57.548Z,10.70
2023-12-30T17:49:28.874Z,10.39
2023-12-30T17:52:03.607Z,10.32
2023-12-30T17:54:37.437Z,10.47
2023-12-30T17:57:07.027Z,10.96
2023-12-30T17:59:36.979Z,11.37
2023-12-30T18:02:05.909Z,11.30
2023-12-30T18:04:34.532Z,11.08
2023-12-30T18:07:03.169Z,11.59
2023-12-30T18:09:31.763Z,12.26
2023-12-30T18:12:00.868Z,11.64
2023-12-30T18:14:30.120Z,11.55
2023-12-30T18:16:59.132Z,11.14
2023-12-30T18:19:27.744Z,11.75
2023-12-30T18:21:59.855Z,10.98
2023-12-30T18:24:31.642Z,11.40
2023-12-30T18:27:00.270Z,11.46
2023-12-30T18:29:28.866Z,11.83
2023-12-30T18:31:57.411Z,11.68
2023-12-30T18:34:36.491Z,11.15
2023-12-30T18:37:06.649Z,11.73
2023-12-30T18:39:35.224Z,11.99
2023-12-30T18:42:05.778Z,11.60
2023-12-30T18:44:34.296Z,11.24
2023-12-30T18:47:06.466Z,11.01
2023-12-30T18:49:36.433Z,11.20
2023-12-30T18:52:05.184Z,11.46
2023-12-30T18:54:33.744Z,11.25
2023-12-30T18:57:05.337Z,11.12
2023-12-30T18:59:36.691Z,11.23
2023-12-30T19:02:05.709Z,10.86
2023-12-30T19:04:37.822Z,11.03
2023-12-30T19:07:22.212Z,11.08
2023-12-30T19:09:53.652Z,11.05
2023-12-30T19:12:26.206Z,11.07
2023-12-30T19:14:55.828Z,11.08
2023-12-30T19:17:30.058Z,11.65
2023-12-30T19:20:09.191Z,11.63
2023-12-30T19:22:37.810Z,11.36
2023-12-30T19:25:07.523Z,11.20
2023-12-30T19:27:35.835Z,10.84
2023-12-30T19:30:10.962Z,11.07
2023-12-30T19:32:39.293Z,11.14
2023-12-30T19:35:11.343Z,10.75
2023-12-30T19:37:43.243Z,10.97
2023-12-30T19:40:13.217Z,10.61
2023-12-30T19:42:41.795Z,11.13
2023-12-30T19:45:13.153Z,11.14
2023-12-30T19:47:41.991Z,10.65
2023-12-30T19:50:17.961Z,10.19
2023-12-30T19:52:55.679Z,10.73
2023-12-30T19:55:27.056Z,10.99
2023-12-30T19:57:58.434Z,10.48
2023-12-30T20:00:29.387Z,10.84
2023-12-30T20:03:09.598Z,10.47
2023-12-30T20:05:39.582Z,9.89
2023-12-30T20:08:13.511Z,9.81
2023-12-30T20:10:41.878Z,11.02
2023-12-30T20:13:16.339Z,10.66
2023-12-30T20:15:44.929Z,10.54
2023-12-30T20:18:13.474Z,10.27
2023-12-30T20:20:43.198Z,10.15
2023-12-30T20:23:11.923Z,10.31
2023-12-30T20:25:40.749Z,10.71
2023-12-30T20:28:10.394Z,10.87
2023-12-30T20:30:38.813Z,10.48
2023-12-30T20:33:12.228Z,10.60
2023-12-30T20:35:41.972Z,10.77
2023-12-30T20:38:13.364Z,10.27
2023-12-30T20:40:46.798Z,10.88
2023-12-30T20:43:15.544Z,10.37
2023-12-30T20:45:50.904Z,10.00
2023-12-30T20:48:19.297Z,10.51
2023-12-30T20:50:49.353Z,10.66
2023-12-30T20:53:24.320Z,10.57
2023-12-30T20:55:58.525Z,10.34
2023-12-30T20:58:27.540Z,10.75
2023-12-30T21:00:55.924Z,10.06
2023-12-30T21:03:24.261Z,10.43
2023-12-30T21:05:53.996Z,10.17
2023-12-30T21:08:22.484Z,10.19
2023-12-30T21:10:50.853Z,10.37
2023-12-30T21:13:19.575Z,10.59
2023-12-30T21:15:50.343Z,9.87
2023-12-30T21:18:21.742Z,10.39
2023-12-30T21:20:50.921Z,10.04
2023-12-30T21:23:22.853Z,10.26
2023-12-30T21:25:55.636Z,10.24
2023-12-30T21:28:29.393Z,10.55
2023-12-30T21:31:03.749Z,10.27
2023-12-30T21:33:32.881Z,10.62
2023-12-30T21:36:08.559Z,10.70
2023-12-30T21:38:40.995Z,10.65
2023-12-30T21:41:09.572Z,10.60
2023-12-30T21:43:41.695Z,10.68
2023-12-30T21:46:10.082Z,10.74
2023-12-30T21:48:42.413Z,10.65
2023-12-30T21:51:12.679Z,11.08
2023-12-30T21:53:46.472Z,10.60
2023-12-30T21:56:16.133Z,10.53
2023-12-30T21:58:44.512Z,10.96
2023-12-30T22:01:12.886Z,10.60
2023-12-30T22:03:41.260Z,10.33
2023-12-30T22:06:09.556Z,10.10
2023-12-30T22:08:51.727Z,10.77
2023-12-30T22:11:23.068Z,10.88
2023-12-30T22:13:54.510Z,10.42
2023-12-30T22:16:22.899Z,10.51
2023-12-30T22:18:54.041Z,10.86
2023-12-30T22:21:22.626Z,11.17
2023-12-30T22:23:55.267Z,11.09
2023-12-30T22:26:26.410Z,11.36
2023-12-30T22:28:54.675Z,10.61
2023-12-30T22:31:25.809Z,10.73
2023-12-30T22:33:54.229Z,10.60
2023-12-30T22:36:34.704Z,10.83
2023-12-30T22:39:11.312Z,10.38
2023-12-30T22:41:39.656Z,11.26
2023-12-30T22:44:07.961Z,11.51
2023-12-30T22:46:43.807Z,11.49
2023-12-30T22:49:18.330Z,10.96
2023-12-30T22:51:53.228Z,10.77
2023-12-30T22:54:23.188Z,10.69
2023-12-30T22:56:55.090Z,10.35
2023-12-30T22:59:23.350Z,10.12
2023-12-30T23:01:54.701Z,10.23
2023-12-30T23:04:23.301Z,10.40
2023-12-30T23:06:54.428Z,10.88
2023-12-30T23:09:24.217Z,10.44
2023-12-30T23:11:52.550Z,10.69
2023-12-30T23:14:23.737Z,11.34
2023-12-30T23:16:52.128Z,10.89
2023-12-30T23:19:23.231Z,10.32
2023-12-30T23:21:56.907Z,10.66
2023-12-30T23:24:29.051Z,11.04
2023-12-30T23:27:00.571Z,10.80
2023-12-30T23:29:29.429Z,10.44
2023-12-30T23:31:57.703Z,10.81
2023-12-30T23:34:36.367Z,10.57
2023-12-30T23:37:11.269Z,10.29
2023-12-30T23:39:49.963Z,10.13
2023-12-30T23:42:21.412Z,10.60
2023-12-30T23:44:52.580Z,10.91
2023-12-30T23:47:23.767Z,11.84
2023-12-30T23:49:52.162Z,10.90
2023-12-30T23:52:23.490Z,10.48
2023-12-30T23:54:56.300Z,10.89
2023-12-30T23:57:24.564Z,10.59
2023-12-30T23:59:52.867Z,10.47
